メインページ
METAR-TAF:

METAR-TAF

空港 :

ナンディ国際空港

ナンディ, フィジー

緯度: 17-45S, 経度: 177-27E, 海抜: 13m

現時点の気象観測

当レポートは27分前の05:00(UTC)に作成
西/北西の風 7kt
気温 30°C
湿度 70%
気圧 1009 hPa
視程10km以上
高度3000ftの雲はほとんどない

METAR: NFFN 250500Z 30007KT 9999 FEW030 30/24 Q1009 NOSIG

時間: 17:27 (05:27 UTC)

予報

当レポートは6時間5分前の23:22(UTC)に作成
予報は25日の 00時(UTC)から 25日の 24時(UTC)まで有効
西/北西の風 10kt
視程10km以上
高度2800ftの雲は散在している
高度4500ftの千切れ雲あり
25日の 06時(UTC)から 25日の 08時(UTC)まで徐々に
東/南東の風 5kt
25日の 22時(UTC)から 25日の 24時(UTC)まで徐々に
北西の風 10kt

TAF: NFFN 242322Z 2500/2524 30010KT 9999 SCT028 BKN045 BECMG 2506/2508 12005KT BECMG 2522/2524 32010KT

4,000以上の空港の気象観測と天気予報(METAR報とTAF報)

利用可能な観測所は地図上に黄色い丸と赤い丸で示す。

丸の上にカーソルを重ねると観測所名を参照できる。

次にクリックすると気象観測と天気予報を参照できる。

マップの切り替え:黒色「×」印の緑ボタンをクリックして拡大、「-」印の緑ボタンをクリックして縮小、緑色の三角印をクリックして隣りの地図に切り替え


METAR-TAF: